ADDS METAR Data INFO
IDs: Format: Raw Decoded Include TAF

Data at: 1748 UTC 21 Oct 2017

KSRQ 211653Z 10016G22KT 10SM SCT037 30/21 A3008 RMK AO2 SLP186 T03000206
KSRQ 211553Z 09014G20KT 10SM CLR 29/20 A3010 RMK AO2 SLP191 T02890200
KSRQ 211453Z 08015G22KT 10SM CLR 28/20 A3009 RMK AO2 SLP190 T02780200 50010
KSRQ 211353Z 09011G16KT 10SM CLR 26/21 A3010 RMK AO2 SLP191 T02610206
KSRQ 211253Z 07010KT 10SM CLR 24/21 A3008 RMK AO2 SLP186 T02390206
KSRQ 211153Z 07006KT 10SM CLR 22/21 A3006 RMK AO2 SLP179 T02220206 10228 20222 53012
KSRQ 211053Z 07007KT 10SM CLR 22/21 A3005 RMK AO2 SLP174 T02220206
KSRQ 210953Z 07007KT 10SM CLR 22/21 A3004 RMK AO2 SLP170 T02220206
KSRQ 210853Z AUTO 08008KT 10SM CLR 23/21 A3003 RMK AO2 SLP167 T02280206 55009
KSRQ 210753Z AUTO 07008KT 10SM CLR 23/21 A3003 RMK AO2 SLP167 T02280206
KSRQ 210653Z AUTO 07009KT 10SM CLR 22/21 A3004 RMK AO2 SLP171 T02220206
KSRQ 210553Z AUTO 08006KT 10SM CLR 23/21 A3006 RMK AO2 SLP177 T02280206 10267 20228 56008
KSRQ 210453Z AUTO 07008KT 10SM CLR 23/21 A3006 RMK AO2 SLP178 T02330206 403060222
KSRQ 210353Z AUTO 06008KT 10SM CLR 23/21 A3007 RMK AO2 SLP182 T02330206
KSRQ 210253Z 08007KT 10SM CLR 24/21 A3008 RMK AO2 SLP185 T02440206 51017
KSRQ 210153Z 08010KT 10SM CLR 25/21 A3007 RMK AO2 SLP181 T02500206
KSRQ 210053Z 08011KT 10SM CLR 26/21 A3005 RMK AO2 SLP175 T02560206
KSRQ 202353Z 08012KT 10SM FEW065 27/21 A3003 RMK AO2 SLP169 T02670206 10306 20267 53010
KSRQ 202253Z 06012KT 10SM CLR 28/19 A3001 RMK AO2 SLP162 T02780194
KSRQ 202153Z 07012KT 10SM CLR 29/19 A3000 RMK AO2 SLP157 T02890194
KSRQ 202053Z AUTO 08015G19KT 10SM CLR 29/19 A3000 RMK AO2 SLP158 T02940194 56013
KSRQ 201953Z AUTO 08015G19KT 10SM FEW045 30/20 A3001 RMK AO2 SLP160 T03000200
KSRQ 201853Z AUTO 09013G19KT 10SM FEW043 SCT060 30/20 A3001 RMK AO2 SLP162 T03000200
KSRQ 201753Z 07012KT 10SM BKN043 OVC050 30/21 A3004 RMK AO2 SLP171 T03000206 10300 20222 58016
KSRQ 201653Z 07012G23KT 10SM CLR 30/21 A3006 RMK AO2 SLP178 T03000206
KSRQ 201553Z 06012G18KT 10SM CLR 29/21 A3007 RMK AO2 SLP182 T02890206
KSRQ 201453Z 07014G21KT 10SM CLR 27/21 A3009 RMK AO2 SLP187 T02720211 50002
KSRQ 201353Z 07013G18KT 10SM CLR 26/21 A3009 RMK AO2 SLP189 T02560211
KSRQ 201253Z 06008KT 10SM CLR 24/21 A3009 RMK AO2 SLP187 T02390211
KSRQ 201153Z 05006KT 10SM CLR 22/21 A3008 RMK AO2 SLP185 T02220211 10228 20222 53005
KSRQ 201053Z 05008KT 10SM CLR 22/21 A3007 RMK AO2 SLP180 T02220211
KSRQ 200953Z 04007KT 10SM CLR 22/21 A3006 RMK AO2 SLP178 T02220211
KSRQ 200853Z AUTO 04005KT 10SM CLR 22/21 A3006 RMK AO2 SLP179 T02220211 55002
KSRQ 200753Z AUTO 04007KT 10SM CLR 22/21 A3005 RMK AO2 SLP176 T02220211
KSRQ 200653Z AUTO 03005KT 10SM CLR 22/21 A3006 RMK AO2 SLP180 T02220211
KSRQ 200553Z AUTO 03006KT 10SM CLR 23/21 A3007 RMK AO2 SLP182 T02280211 10272 20228 58001